Lone Jack, Missouri
Current Conditions -  °F | °C
As of 5:53 PM on Saturday 25 Oct 2014 (Local Time) from KLXT Reporting Station
Clear Clear  
Wind Chill: 77°   Ceiling: Unl
Heat Index: 79°   Visibility: 10mi
Dew Point: 58°   Wind: 3mph
Humidity: 52%   Direction: 60°ENE
Pressure: 30.02"   Gusts: NA
Location:  38.87°N, 94.17°W
Report Text: KLXT 252253Z AUTO 06003KT 10SM CLR 25/14 A3002 RMK AO2 SLP160 T02500144
Loading
Personal Weather Stations






























Interactive Weather Map
Tropical Storm Tracking
New forecast layout! Learn more

10-Day Weather Forecast

Advertisements
Track Severe Weather on mobile